Time;durP1;ratioP1;P1;durP2;ratioP2;P2;SDS_P1;SDS_P2;PMS_P1;PMS_P2;Temp;Humidity;BMP_temperature;BMP_pressure;BME280_temperature;BME280_humidity;BME280_pressure;Samples;Min_cycle;Max_cycle;Signal;HPM_P1;HPM_P2
2023/01/10 00:01:32;;;;;;;6.78;2.80;;;4.00;99.90;;;;;;5089216;28;20047;-60
2023/01/10 00:03:57;;;;;;;13.90;3.90;;;4.10;99.90;;;;;;5086296;28;20028;-59
2023/01/10 00:06:23;;;;;;;9.60;3.33;;;4.10;99.90;;;;;;5084199;28;20055;-60
2023/01/10 00:08:48;;;;;;;15.57;4.40;;;4.10;99.90;;;;;;5080843;28;20104;-60
2023/01/10 00:13:59;;;;;;;13.38;3.97;;;4.10;99.90;;;;;;5087979;28;20815;-60
2023/01/10 00:16:24;;;;;;;14.07;4.07;;;4.10;99.90;;;;;;5087960;28;20029;-59
2023/01/10 00:18:50;;;;;;;15.00;5.00;;;4.10;99.90;;;;;;5072857;28;20040;-60
2023/01/10 00:21:16;;;;;;;9.68;4.18;;;4.10;99.90;;;;;;5065490;28;20029;-60
2023/01/10 00:23:43;;;;;;;13.07;4.03;;;4.10;99.90;;;;;;5072007;28;20795;-59
2023/01/10 00:26:09;;;;;;;15.63;4.00;;;4.10;99.90;;;;;;5074008;28;20523;-58
2023/01/10 00:28:35;;;;;;;10.82;3.72;;;4.10;99.90;;;;;;5081448;28;20048;-59
2023/01/10 00:31:05;;;;;;;12.32;4.30;;;4.20;99.90;;;;;;5085943;28;20331;-56
2023/01/10 00:33:31;;;;;;;13.43;4.10;;;4.20;99.90;;;;;;5081567;28;20044;-58
2023/01/10 00:36:01;;;;;;;13.35;4.05;;;4.10;99.90;;;;;;5073127;28;20559;-59
2023/01/10 00:38:27;;;;;;;11.15;3.92;;;4.10;99.90;;;;;;5069345;28;20036;-60
2023/01/10 00:40:53;;;;;;;15.68;4.30;;;4.20;99.90;;;;;;5072449;28;20432;-59
2023/01/10 00:46:03;;;;;;;12.27;3.28;;;4.20;99.90;;;;;;5074919;28;20036;-60
2023/01/10 00:48:29;;;;;;;8.20;3.45;;;4.20;99.90;;;;;;5080202;28;20067;-55
2023/01/10 00:50:54;;;;;;;14.65;3.80;;;4.20;99.90;;;;;;5077964;28;20044;-57
2023/01/10 00:53:20;;;;;;;19.42;4.20;;;4.20;99.90;;;;;;5074935;28;20078;-62
2023/01/10 00:55:46;;;;;;;20.92;5.38;;;4.20;99.90;;;;;;5079283;28;20036;-60
2023/01/10 00:58:13;;;;;;;12.13;3.30;;;4.10;99.90;;;;;;5070699;28;20048;-60
2023/01/10 01:00:40;;;;;;;10.88;4.07;;;4.10;99.90;;;;;;5074644;28;20068;-60
2023/01/10 01:03:06;;;;;;;16.80;5.32;;;4.10;99.90;;;;;;5073042;28;20431;-58
2023/01/10 01:05:33;;;;;;;14.18;4.07;;;4.10;99.90;;;;;;5078936;28;20131;-60
2023/01/10 01:07:58;;;;;;;25.42;5.28;;;4.10;99.90;;;;;;5078491;28;20036;-61
2023/01/10 01:10:26;;;;;;;15.88;4.80;;;4.10;99.90;;;;;;5076946;28;20569;-61
2023/01/10 01:12:53;;;;;;;18.23;4.85;;;4.20;99.90;;;;;;5073834;28;20036;-60
2023/01/10 01:15:20;;;;;;;14.57;4.45;;;4.10;99.90;;;;;;5066730;28;20047;-61
2023/01/10 01:17:46;;;;;;;18.42;4.72;;;4.20;99.90;;;;;;5074825;28;20713;-60
2023/01/10 01:20:12;;;;;;;12.93;4.55;;;4.10;99.90;;;;;;5077435;28;20040;-61
2023/01/10 01:22:38;;;;;;;16.10;5.00;;;4.20;99.90;;;;;;5074421;28;20044;-61
2023/01/10 01:25:04;;;;;;;18.30;4.90;;;4.10;99.90;;;;;;5073123;28;20147;-61
2023/01/10 01:27:30;;;;;;;19.08;4.75;;;4.20;99.90;;;;;;5071318;28;20048;-60
2023/01/10 01:29:56;;;;;;;22.88;4.75;;;4.10;99.90;;;;;;5065127;28;20063;-60
2023/01/10 01:32:22;;;;;;;19.75;5.55;;;4.10;99.90;;;;;;5070475;28;20585;-61
2023/01/10 01:34:48;;;;;;;18.90;4.45;;;4.10;99.90;;;;;;5063682;28;20672;-61
2023/01/10 01:37:14;;;;;;;18.55;4.80;;;4.10;99.90;;;;;;5065821;28;20547;-60
2023/01/10 01:39:39;;;;;;;14.35;4.78;;;4.10;99.90;;;;;;5065582;28;20036;-60
2023/01/10 01:42:05;;;;;;;23.60;4.93;;;4.10;99.90;;;;;;5069408;28;20040;-60
2023/01/10 01:44:35;;;;;;;15.13;5.32;;;4.10;99.90;;;;;;5074167;28;20097;-60
2023/01/10 01:47:19;;;;;;;16.35;5.65;;;4.10;99.90;;;;;;5078738;28;20530;-58
2023/01/10 01:49:44;;;;;;;20.00;6.03;;;4.10;99.90;;;;;;5074385;28;20040;-59
2023/01/10 01:52:29;;;;;;;18.13;5.70;;;4.10;99.90;;;;;;5074665;28;20405;-59
2023/01/10 01:54:57;;;;;;;15.52;4.50;;;4.10;99.90;;;;;;5072275;28;20727;-58
2023/01/10 01:57:27;;;;;;;11.52;4.80;;;4.10;99.90;;;;;;5066917;28;20412;-60
2023/01/10 01:59:54;;;;;;;18.27;5.05;;;4.00;99.90;;;;;;5077488;28;20036;-58
2023/01/10 02:02:29;;;;;;;10.52;4.78;;;4.10;99.90;;;;;;5072999;28;20076;-59
2023/01/10 02:05:04;;;;;;;15.52;4.88;;;4.00;99.90;;;;;;5076748;28;20044;-60
2023/01/10 02:07:36;;;;;;;15.98;4.53;;;4.00;99.90;;;;;;5074805;28;20076;-61
2023/01/10 02:10:28;;;;;;;20.73;4.88;;;4.00;99.90;;;;;;5077417;28;20399;-60
2023/01/10 02:12:56;;;;;;;16.30;4.45;;;4.00;99.90;;;;;;5051434;28;20048;-58
2023/01/10 02:15:22;;;;;;;23.77;4.93;;;4.00;99.90;;;;;;5073832;28;20040;-60
2023/01/10 02:17:50;;;;;;;14.73;3.83;;;3.90;99.90;;;;;;5068701;28;20514;-60
2023/01/10 02:20:18;;;;;;;17.25;4.32;;;3.90;99.90;;;;;;5064161;28;20111;-60
2023/01/10 02:23:23;;;;;;;20.20;4.22;;;3.90;99.90;;;;;;5072086;28;20040;-61
2023/01/10 02:25:55;;;;;;;17.20;4.25;;;3.90;99.90;;;;;;5065693;28;20040;-60
2023/01/10 02:28:20;;;;;;;20.23;3.78;;;3.90;99.90;;;;;;5070916;28;20493;-59
2023/01/10 02:30:56;;;;;;;12.20;3.50;;;3.90;99.90;;;;;;5071425;28;20042;-60
2023/01/10 02:33:31;;;;;;;11.57;2.90;;;3.70;99.90;;;;;;5070511;28;20039;-58
2023/01/10 02:36:04;;;;;;;8.57;3.58;;;3.70;99.90;;;;;;5071845;28;20547;-61
2023/01/10 02:38:50;;;;;;;12.65;3.17;;;3.60;99.90;;;;;;5069504;28;20059;-61
2023/01/10 02:42:09;;;;;;;5.15;2.60;;;3.60;99.90;;;;;;5075729;28;20481;-60
2023/01/10 02:44:43;;;;;;;8.93;3.08;;;3.50;99.90;;;;;;5048171;28;20884;-61
2023/01/10 02:47:12;;;;;;;14.23;3.30;;;3.50;99.90;;;;;;5067595;28;20467;-61
2023/01/10 02:49:42;;;;;;;10.45;3.28;;;3.50;99.90;;;;;;5072937;28;20055;-60
2023/01/10 02:52:08;;;;;;;20.60;3.88;;;3.60;99.90;;;;;;5072806;28;20078;-61
2023/01/10 02:54:33;;;;;;;14.95;3.65;;;3.60;99.90;;;;;;5072188;28;20055;-60
2023/01/10 02:57:37;;;;;;;16.30;3.85;;;3.70;99.90;;;;;;5072154;28;20513;-58
2023/01/10 03:00:09;;;;;;;17.85;3.72;;;3.70;99.90;;;;;;5051817;28;20044;-58
2023/01/10 03:02:40;;;;;;;16.67;3.58;;;3.70;99.90;;;;;;5075904;28;20533;-59
2023/01/10 03:05:26;;;;;;;14.15;3.83;;;3.80;99.90;;;;;;5069821;28;20037;-59
2023/01/10 03:08:37;;;;;;;17.73;3.90;;;3.80;99.90;;;;;;5062359;28;20040;-59
2023/01/10 03:11:06;;;;;;;17.48;4.20;;;3.80;99.90;;;;;;5044594;28;20713;-60
2023/01/10 03:13:50;;;;;;;21.50;4.00;;;3.80;99.90;;;;;;5067004;28;20040;-59
2023/01/10 03:16:19;;;;;;;22.42;4.40;;;3.80;99.90;;;;;;5077971;28;20067;-60
2023/01/10 03:18:55;;;;;;;13.77;4.25;;;3.80;99.90;;;;;;5065896;28;20094;-60
2023/01/10 03:21:23;;;;;;;16.00;4.97;;;3.80;99.90;;;;;;5072850;28;20052;-59
2023/01/10 03:23:51;;;;;;;13.32;4.15;;;3.80;99.90;;;;;;5071175;28;20123;-59
2023/01/10 03:26:32;;;;;;;20.02;4.68;;;3.80;99.90;;;;;;5073518;28;20443;-60
2023/01/10 03:29:09;;;;;;;24.70;5.43;;;3.80;99.90;;;;;;5066761;28;20040;-60
2023/01/10 03:31:41;;;;;;;14.27;4.20;;;3.80;99.90;;;;;;5073334;28;20068;-60
2023/01/10 03:34:07;;;;;;;21.75;4.68;;;3.80;99.90;;;;;;5065256;28;20045;-60
2023/01/10 03:36:46;;;;;;;18.52;4.65;;;3.70;99.90;;;;;;5070520;28;20043;-59
2023/01/10 03:39:19;;;;;;;12.50;4.20;;;3.80;99.90;;;;;;5073951;28;20119;-59
2023/01/10 03:41:45;;;;;;;19.98;5.25;;;3.80;99.90;;;;;;5073495;28;20385;-59
2023/01/10 03:47:06;;;;;;;16.15;5.18;;;3.80;99.90;;;;;;5071633;28;20036;-58
2023/01/10 03:49:36;;;;;;;17.13;4.38;;;3.80;99.90;;;;;;5074215;28;20083;-59
2023/01/10 03:52:03;;;;;;;16.88;4.38;;;3.80;99.90;;;;;;5073321;28;20040;-59
2023/01/10 03:54:29;;;;;;;17.58;4.90;;;3.80;99.90;;;;;;5079434;28;20043;-56
2023/01/10 03:56:54;;;;;;;15.48;4.75;;;3.70;99.90;;;;;;5079116;28;20048;-59
2023/01/10 03:59:24;;;;;;;17.27;4.18;;;3.70;99.90;;;;;;5080740;28;20484;-60
2023/01/10 04:01:50;;;;;;;19.52;4.15;;;3.70;99.90;;;;;;5078298;28;20044;-59
2023/01/10 04:04:16;;;;;;;12.77;4.53;;;3.70;99.90;;;;;;5076307;28;20028;-59
2023/01/10 04:06:41;;;;;;;17.17;4.00;;;3.70;99.90;;;;;;5071994;28;20515;-59
2023/01/10 04:09:07;;;;;;;15.07;3.80;;;3.70;99.90;;;;;;5074125;28;20044;-58
2023/01/10 04:11:33;;;;;;;21.33;6.95;;;3.70;99.90;;;;;;5076704;28;20505;-60
2023/01/10 04:13:59;;;;;;;19.92;4.68;;;3.70;99.90;;;;;;5076081;28;20036;-61
2023/01/10 04:16:24;;;;;;;16.20;4.22;;;3.60;99.90;;;;;;5067426;28;20871;-59
2023/01/10 04:18:50;;;;;;;17.65;4.10;;;3.50;99.90;;;;;;5076657;28;20124;-60
2023/01/10 04:21:16;;;;;;;22.67;4.30;;;3.50;99.90;;;;;;5072581;28;20033;-60
2023/01/10 04:23:41;;;;;;;10.02;3.72;;;3.50;99.90;;;;;;5065109;28;20040;-58
2023/01/10 04:26:07;;;;;;;11.85;4.00;;;3.50;99.90;;;;;;5073281;28;20055;-58
2023/01/10 04:28:32;;;;;;;15.20;3.22;;;3.50;99.90;;;;;;5073721;28;20145;-58
2023/01/10 04:30:58;;;;;;;14.35;3.95;;;3.40;99.90;;;;;;5073948;28;20061;-58
2023/01/10 04:33:24;;;;;;;16.45;3.90;;;3.40;99.90;;;;;;5071488;28;20103;-56
2023/01/10 04:35:51;;;;;;;17.00;3.65;;;3.40;99.90;;;;;;5074160;28;20037;-59
2023/01/10 04:38:17;;;;;;;23.08;3.92;;;3.40;99.90;;;;;;5068727;28;20043;-59
2023/01/10 04:40:43;;;;;;;16.73;3.72;;;3.50;99.90;;;;;;5078195;28;20109;-54
2023/01/10 04:43:09;;;;;;;17.52;3.60;;;3.50;99.90;;;;;;5074177;28;20124;-58
2023/01/10 04:45:35;;;;;;;16.50;4.00;;;3.60;99.90;;;;;;5068259;28;20430;-59
2023/01/10 04:48:01;;;;;;;27.55;3.28;;;3.60;99.90;;;;;;5078115;28;20043;-58
2023/01/10 04:50:26;;;;;;;14.90;3.60;;;3.60;99.90;;;;;;5078817;28;20036;-59
2023/01/10 04:52:52;;;;;;;18.42;3.05;;;3.60;99.90;;;;;;5075917;28;20044;-60
2023/01/10 04:55:18;;;;;;;14.35;4.30;;;3.60;99.90;;;;;;5069128;28;20029;-58
2023/01/10 04:57:43;;;;;;;13.85;3.25;;;3.60;99.90;;;;;;5072869;28;20036;-60
2023/01/10 05:00:11;;;;;;;10.10;2.72;;;3.60;99.90;;;;;;5072841;28;20515;-59
2023/01/10 05:02:42;;;;;;;9.52;2.63;;;3.50;99.90;;;;;;5074323;28;20040;-58
2023/01/10 05:05:11;;;;;;;15.07;2.97;;;3.40;99.90;;;;;;5070552;28;20043;-60
2023/01/10 05:07:37;;;;;;;11.82;2.83;;;3.30;99.90;;;;;;5064112;28;20052;-60
2023/01/10 05:10:05;;;;;;;5.50;2.17;;;3.30;99.90;;;;;;5070984;28;20555;-60
2023/01/10 05:12:30;;;;;;;7.85;2.10;;;3.30;99.90;;;;;;5074995;28;20052;-60
2023/01/10 05:14:56;;;;;;;8.13;2.28;;;3.30;99.90;;;;;;5084487;28;20123;-61
2023/01/10 05:17:22;;;;;;;12.68;2.75;;;3.30;99.90;;;;;;5087001;28;20040;-60
2023/01/10 05:19:47;;;;;;;15.00;4.28;;;3.30;99.90;;;;;;5087733;28;20037;-60
2023/01/10 05:22:13;;;;;;;19.17;4.40;;;3.30;99.90;;;;;;5095249;28;20039;-60
2023/01/10 05:24:38;;;;;;;13.13;3.83;;;3.30;99.90;;;;;;5076961;28;20495;-60
2023/01/10 05:27:04;;;;;;;15.52;3.00;;;3.30;99.90;;;;;;5075899;28;20040;-60
2023/01/10 05:29:31;;;;;;;15.35;4.68;;;3.30;99.90;;;;;;5076005;28;20046;-60
2023/01/10 05:31:57;;;;;;;21.48;5.25;;;3.30;99.90;;;;;;5071101;28;20047;-61
2023/01/10 05:34:22;;;;;;;13.98;3.88;;;3.20;99.90;;;;;;5076430;28;20039;-60
2023/01/10 05:36:48;;;;;;;22.10;3.90;;;3.30;99.90;;;;;;5072550;28;20615;-62
2023/01/10 05:39:14;;;;;;;21.02;4.40;;;3.20;99.90;;;;;;5074185;28;20113;-58
2023/01/10 05:41:39;;;;;;;12.90;4.38;;;3.20;99.90;;;;;;5071011;28;20098;-58
2023/01/10 05:44:06;;;;;;;20.80;4.60;;;3.20;99.90;;;;;;5070321;28;20056;-60
2023/01/10 05:46:31;;;;;;;16.63;4.22;;;3.20;99.90;;;;;;5066673;28;20070;-59
2023/01/10 05:48:57;;;;;;;17.30;4.70;;;3.20;99.90;;;;;;5066365;28;20105;-60
2023/01/10 05:51:22;;;;;;;19.23;5.65;;;3.30;99.90;;;;;;5075584;28;20050;-59
2023/01/10 05:53:48;;;;;;;20.38;5.53;;;3.30;99.90;;;;;;5092116;28;20039;-60
2023/01/10 05:56:14;;;;;;;29.85;7.35;;;3.30;99.90;;;;;;5071083;28;20068;-60
2023/01/10 05:58:39;;;;;;;20.23;5.05;;;3.40;99.90;;;;;;5073694;28;20119;-58
2023/01/10 06:01:05;;;;;;;15.45;4.50;;;3.40;99.90;;;;;;5072273;28;20036;-60
2023/01/10 06:03:30;;;;;;;18.67;5.45;;;3.40;99.90;;;;;;5071980;28;20118;-56
2023/01/10 06:05:56;;;;;;;15.75;4.18;;;3.40;99.90;;;;;;5074520;28;20072;-60
2023/01/10 06:08:22;;;;;;;17.25;4.22;;;3.50;99.90;;;;;;5064581;28;20035;-59
2023/01/10 06:10:48;;;;;;;21.77;5.38;;;3.50;99.90;;;;;;5074841;28;20040;-59
2023/01/10 06:13:14;;;;;;;15.40;4.47;;;3.50;99.90;;;;;;5082148;28;20485;-58
2023/01/10 06:15:39;;;;;;;27.50;5.70;;;3.50;99.90;;;;;;5091991;28;20073;-57
2023/01/10 06:18:05;;;;;;;15.48;4.75;;;3.50;99.90;;;;;;5085870;28;20036;-60
2023/01/10 06:20:31;;;;;;;24.63;5.88;;;3.50;99.90;;;;;;5076350;28;20050;-61
2023/01/10 06:23:03;;;;;;;26.92;6.45;;;3.50;99.90;;;;;;5075090;28;20271;-59
2023/01/10 06:25:29;;;;;;;20.80;6.03;;;3.50;99.90;;;;;;5068300;28;20989;-59
2023/01/10 06:27:55;;;;;;;16.95;4.78;;;3.60;99.90;;;;;;5078906;28;20058;-59
2023/01/10 06:30:21;;;;;;;18.50;5.25;;;3.60;99.90;;;;;;5077374;28;20096;-60
2023/01/10 06:32:46;;;;;;;16.67;5.18;;;3.60;99.90;;;;;;5069361;28;20043;-60
2023/01/10 06:35:12;;;;;;;18.77;5.40;;;3.60;99.90;;;;;;5071729;28;20102;-58
2023/01/10 06:37:38;;;;;;;17.02;5.20;;;3.60;99.90;;;;;;5076461;28;20127;-60
2023/01/10 06:40:04;;;;;;;15.63;5.25;;;3.70;99.90;;;;;;5077271;28;20043;-60
2023/01/10 06:42:30;;;;;;;11.27;4.93;;;3.60;99.90;;;;;;5093920;28;20122;-60
2023/01/10 06:44:55;;;;;;;23.70;6.97;;;3.60;99.90;;;;;;5083071;28;20666;-60
2023/01/10 06:47:21;;;;;;;24.88;5.85;;;3.70;99.90;;;;;;5073237;28;20097;-59
2023/01/10 06:49:46;;;;;;;16.63;6.10;;;3.70;99.90;;;;;;5074464;28;20037;-60
2023/01/10 06:52:12;;;;;;;18.23;5.45;;;3.70;99.90;;;;;;5074708;28;20047;-60
2023/01/10 06:54:38;;;;;;;18.63;5.68;;;3.70;99.90;;;;;;5088112;28;20040;-60
2023/01/10 06:57:04;;;;;;;17.92;6.43;;;3.80;99.90;;;;;;5077051;28;20071;-59
2023/01/10 06:59:30;;;;;;;17.48;5.93;;;3.70;99.90;;;;;;5076663;28;20054;-60
2023/01/10 07:01:55;;;;;;;21.98;5.95;;;3.70;99.90;;;;;;5078725;28;20037;-57
2023/01/10 07:04:21;;;;;;;19.23;5.75;;;3.70;99.90;;;;;;5103519;28;20039;-60
2023/01/10 07:06:46;;;;;;;18.23;5.55;;;3.70;99.90;;;;;;5067583;28;20041;-61
2023/01/10 07:09:12;;;;;;;18.77;6.07;;;3.70;99.90;;;;;;5071819;28;20070;-58
2023/01/10 07:11:38;;;;;;;19.35;5.35;;;3.70;99.90;;;;;;5079257;28;20067;-62
2023/01/10 07:14:03;;;;;;;16.35;6.10;;;3.70;99.90;;;;;;5091749;28;20513;-60
2023/01/10 07:16:29;;;;;;;16.92;4.65;;;3.70;99.90;;;;;;5078330;28;20047;-59
2023/01/10 07:18:55;;;;;;;19.35;6.30;;;3.70;99.90;;;;;;5094658;28;20043;-64
2023/01/10 07:21:20;;;;;;;14.32;5.13;;;3.70;99.90;;;;;;5074425;28;20295;-61
2023/01/10 07:23:49;;;;;;;12.88;5.35;;;3.70;99.90;;;;;;5063935;28;20036;-56
2023/01/10 07:26:19;;;;;;;14.77;6.65;;;3.70;99.90;;;;;;5072994;28;20044;-59
2023/01/10 07:28:49;;;;;;;20.30;6.03;;;3.70;99.90;;;;;;5079924;28;20093;-60
2023/01/10 07:31:16;;;;;;;24.25;6.05;;;3.80;99.90;;;;;;5075688;28;20119;-61
2023/01/10 07:33:42;;;;;;;19.88;6.72;;;3.80;99.90;;;;;;5083461;28;20123;-61
2023/01/10 07:36:07;;;;;;;21.83;7.40;;;3.80;99.90;;;;;;5080310;28;20118;-60
2023/01/10 07:38:33;;;;;;;18.10;6.85;;;3.90;99.90;;;;;;5074103;28;20051;-61
2023/01/10 07:41:02;;;;;;;21.35;7.13;;;3.90;99.90;;;;;;5077561;28;20039;-60
2023/01/10 07:43:28;;;;;;;16.45;6.60;;;3.90;99.90;;;;;;5079621;28;20040;-57
2023/01/10 07:45:53;;;;;;;24.10;6.78;;;3.90;99.90;;;;;;5073675;28;20110;-60
2023/01/10 07:48:19;;;;;;;19.63;7.68;;;3.90;99.90;;;;;;5082490;28;20034;-60
2023/01/10 07:50:45;;;;;;;19.73;6.95;;;3.90;99.90;;;;;;5078897;28;20060;-59
2023/01/10 07:53:11;;;;;;;15.65;8.18;;;3.90;99.90;;;;;;5074624;28;20041;-60
2023/01/10 07:55:38;;;;;;;28.23;7.53;;;3.90;99.90;;;;;;5075652;28;20086;-61
2023/01/10 07:58:06;;;;;;;19.73;7.63;;;4.00;99.90;;;;;;5076856;28;20123;-61
2023/01/10 08:01:24;;;;;;;21.67;6.65;;;4.00;99.90;;;;;;5837138;23;20593;-61
2023/01/10 08:03:50;;;;;;;15.23;6.25;;;4.00;99.90;;;;;;4995883;28;20049;-61
2023/01/10 08:06:16;;;;;;;25.58;6.90;;;4.00;99.90;;;;;;5002705;28;20064;-62
2023/01/10 08:08:41;;;;;;;17.77;6.93;;;4.00;99.90;;;;;;4999179;28;20041;-60
2023/01/10 08:11:07;;;;;;;20.83;6.82;;;4.00;99.90;;;;;;4997095;28;20045;-60
2023/01/10 08:13:33;;;;;;;35.05;11.70;;;4.10;99.90;;;;;;5018915;28;20041;-60
2023/01/10 08:15:58;;;;;;;25.45;7.57;;;4.00;99.90;;;;;;5026917;28;20037;-60
2023/01/10 08:18:25;;;;;;;20.23;7.35;;;4.00;99.90;;;;;;5026504;28;20127;-59
2023/01/10 08:20:51;;;;;;;17.98;7.03;;;4.00;99.90;;;;;;5024267;28;20041;-61
2023/01/10 08:23:18;;;;;;;21.92;6.72;;;4.00;99.90;;;;;;5027997;28;20033;-61
2023/01/10 08:25:45;;;;;;;22.33;6.53;;;4.00;99.90;;;;;;5009345;28;20045;-60
2023/01/10 08:28:11;;;;;;;22.15;6.90;;;4.00;99.90;;;;;;5027878;28;20501;-61
2023/01/10 08:30:37;;;;;;;24.13;7.30;;;4.00;99.90;;;;;;5021010;28;20057;-61
2023/01/10 08:33:08;;;;;;;22.63;7.80;;;4.00;99.90;;;;;;5026060;28;20072;-59
2023/01/10 08:35:38;;;;;;;20.75;7.75;;;4.00;99.90;;;;;;5027597;28;20571;-61
2023/01/10 08:38:03;;;;;;;22.38;7.95;;;4.10;99.90;;;;;;5027247;28;20056;-59
2023/01/10 08:40:29;;;;;;;18.85;7.75;;;4.10;99.90;;;;;;5026040;28;20052;-59
2023/01/10 08:42:57;;;;;;;16.85;6.28;;;4.10;99.90;;;;;;5022855;28;20072;-60
2023/01/10 08:45:23;;;;;;;16.13;6.75;;;4.00;99.90;;;;;;5027429;28;20048;-59
2023/01/10 08:47:48;;;;;;;22.02;6.90;;;4.10;99.90;;;;;;5027214;28;20033;-59
2023/01/10 08:50:14;;;;;;;22.08;7.07;;;4.10;99.90;;;;;;5025461;28;20041;-59
2023/01/10 08:52:40;;;;;;;16.85;6.60;;;4.10;99.90;;;;;;5024072;28;20049;-60
2023/01/10 08:55:06;;;;;;;18.15;7.05;;;4.10;99.90;;;;;;5018025;28;20172;-59
2023/01/10 08:57:31;;;;;;;14.45;6.15;;;4.20;99.90;;;;;;5026340;28;20045;-60
2023/01/10 08:59:57;;;;;;;20.75;6.68;;;4.20;99.90;;;;;;5020322;28;20093;-61
2023/01/10 09:02:23;;;;;;;16.48;5.88;;;4.20;99.90;;;;;;5023888;28;20045;-61
2023/01/10 09:04:48;;;;;;;10.43;5.00;;;4.20;99.90;;;;;;5026404;28;20037;-59
2023/01/10 09:07:14;;;;;;;9.23;4.50;;;4.10;99.90;;;;;;5026411;28;20037;-60
2023/01/10 09:09:40;;;;;;;11.23;4.78;;;4.00;99.90;;;;;;5019707;28;20057;-60
2023/01/10 09:12:53;;;;;;;9.90;4.40;;;4.00;99.90;;;;;;5014504;28;20044;-59
2023/01/10 09:14:51;;;;;;;10.50;5.20;;;4.00;99.90;;;;;;5021979;28;20041;-59
2023/01/10 09:17:17;;;;;;;11.05;4.60;;;4.00;99.90;;;;;;5000712;28;20048;-60
2023/01/10 09:19:42;;;;;;;9.25;4.03;;;4.10;99.90;;;;;;5026327;28;20037;-58
2023/01/10 09:22:08;;;;;;;7.82;3.95;;;4.20;99.90;;;;;;5026280;28;20038;-60
2023/01/10 09:24:36;;;;;;;16.05;5.22;;;4.10;99.90;;;;;;5026255;28;20164;-60
2023/01/10 09:27:02;;;;;;;9.52;4.47;;;4.10;99.90;;;;;;5024640;28;20030;-61
2023/01/10 09:29:27;;;;;;;10.27;4.10;;;4.20;99.90;;;;;;5017330;28;20030;-61
2023/01/10 09:31:53;;;;;;;14.60;4.57;;;4.20;99.90;;;;;;5025074;28;20033;-61
2023/01/10 09:34:18;;;;;;;12.73;4.10;;;4.20;99.90;;;;;;5025837;28;20109;-60
2023/01/10 09:36:44;;;;;;;17.58;5.05;;;4.20;99.90;;;;;;5024733;28;20037;-61
2023/01/10 09:39:10;;;;;;;11.20;4.13;;;4.30;99.90;;;;;;5024530;28;20033;-59
2023/01/10 09:41:38;;;;;;;11.23;4.10;;;4.30;99.90;;;;;;5015956;28;20119;-61
2023/01/10 09:44:22;;;;;;;16.38;4.70;;;4.30;99.90;;;;;;5021885;28;20034;-61
2023/01/10 09:47:22;;;;;;;15.68;4.82;;;4.30;99.90;;;;;;5022791;28;20709;-60
2023/01/10 09:50:09;;;;;;;17.67;5.05;;;4.30;99.90;;;;;;5013834;28;20405;-60
2023/01/10 09:52:42;;;;;;;17.45;6.10;;;4.30;99.90;;;;;;5022229;28;20026;-60
2023/01/10 09:55:21;;;;;;;16.00;4.40;;;4.30;99.90;;;;;;5021532;28;20396;-58
2023/01/10 09:57:49;;;;;;;13.55;4.55;;;4.30;99.90;;;;;;5025111;28;20087;-60
2023/01/10 10:00:19;;;;;;;18.20;5.22;;;4.40;99.90;;;;;;5018206;28;20029;-59
2023/01/10 10:02:49;;;;;;;12.02;5.18;;;4.40;99.90;;;;;;5020957;28;20029;-60
2023/01/10 10:05:27;;;;;;;18.52;4.40;;;4.30;99.90;;;;;;5025425;28;20661;-61
2023/01/10 10:07:58;;;;;;;11.40;4.60;;;4.40;99.90;;;;;;5017327;28;20037;-61
2023/01/10 10:11:09;;;;;;;15.45;4.75;;;4.50;99.90;;;;;;5020574;28;20782;-60
2023/01/10 10:13:53;;;;;;;18.25;6.55;;;4.50;99.90;;;;;;4996007;28;20038;-61
2023/01/10 10:16:27;;;;;;;15.25;3.72;;;4.60;99.90;;;;;;5017493;28;20154;-61
2023/01/10 10:19:05;;;;;;;13.93;4.10;;;4.60;99.90;;;;;;5015536;28;20025;-60
2023/01/10 10:21:55;;;;;;;10.07;3.55;;;4.70;99.90;;;;;;5023385;28;20041;-61
2023/01/10 10:24:29;;;;;;;18.23;4.35;;;4.70;99.90;;;;;;5025579;28;20029;-62
2023/01/10 10:27:08;;;;;;;16.63;3.83;;;4.80;99.90;;;;;;5018915;28;20657;-62
2023/01/10 10:29:58;;;;;;;17.08;4.57;;;4.80;99.90;;;;;;5025399;28;20034;-61
2023/01/10 10:32:43;;;;;;;9.27;3.92;;;4.80;99.90;;;;;;5008407;28;20029;-62
2023/01/10 10:35:17;;;;;;;11.25;4.57;;;4.80;99.90;;;;;;4994884;28;20567;-59
2023/01/10 10:37:50;;;;;;;19.25;4.40;;;4.80;99.90;;;;;;4985944;28;21172;-58
2023/01/10 10:40:27;;;;;;;20.10;4.65;;;4.70;99.90;;;;;;4981099;28;21375;-62
2023/01/10 10:42:55;;;;;;;23.88;7.22;;;4.70;99.90;;;;;;4992110;28;20109;-60
2023/01/10 10:45:43;;;;;;;14.73;4.28;;;4.60;99.90;;;;;;4986164;28;20390;-60
2023/01/10 10:48:21;;;;;;;21.15;6.00;;;4.60;99.90;;;;;;4990838;28;20034;-61
2023/01/10 10:50:57;;;;;;;27.48;6.25;;;4.50;99.90;;;;;;4982282;28;20120;-59
2023/01/10 10:53:22;;;;;;;29.52;6.28;;;4.40;99.90;;;;;;4983149;28;20030;-60
2023/01/10 10:55:48;;;;;;;24.08;4.88;;;4.40;99.90;;;;;;4989250;28;20382;-62
2023/01/10 10:58:14;;;;;;;23.35;5.30;;;4.40;99.90;;;;;;4991555;28;20034;-62
2023/01/10 11:00:40;;;;;;;25.58;5.45;;;4.30;99.90;;;;;;4998053;28;20037;-61
2023/01/10 11:03:43;;;;;;;18.10;5.18;;;4.30;99.90;;;;;;5002669;28;20679;-63
2023/01/10 11:06:09;;;;;;;28.73;6.95;;;4.30;99.90;;;;;;4998546;28;20069;-63
2023/01/10 11:08:43;;;;;;;23.83;5.38;;;4.30;99.90;;;;;;5003140;28;20034;-62
2023/01/10 11:11:26;;;;;;;24.13;4.97;;;4.30;99.90;;;;;;4998869;28;20132;-61
2023/01/10 11:13:57;;;;;;;29.85;5.15;;;4.30;99.90;;;;;;5001170;28;20033;-61
2023/01/10 11:16:29;;;;;;;20.88;5.63;;;4.40;99.90;;;;;;5011310;28;20057;-61
2023/01/10 11:19:13;;;;;;;20.05;4.38;;;4.40;99.90;;;;;;5007140;28;20030;-62
2023/01/10 11:21:40;;;;;;;27.95;5.53;;;4.40;99.90;;;;;;5012343;28;20547;-62
2023/01/10 11:24:29;;;;;;;28.40;4.85;;;4.50;99.90;;;;;;5000340;28;20559;-59
2023/01/10 11:26:57;;;;;;;30.38;4.55;;;4.50;99.90;;;;;;4994800;28;20610;-60
2023/01/10 11:29:30;;;;;;;19.00;3.92;;;4.50;99.90;;;;;;5003992;28;20106;-61
2023/01/10 11:31:56;;;;;;;26.92;5.03;;;4.60;99.90;;;;;;5005245;28;20034;-58
2023/01/10 11:34:29;;;;;;;24.27;4.75;;;4.70;99.90;;;;;;5002928;28;20084;-61
2023/01/10 11:37:00;;;;;;;21.88;4.57;;;4.70;99.90;;;;;;5004904;28;20043;-58
2023/01/10 11:39:28;;;;;;;20.30;4.25;;;4.90;99.90;;;;;;5001634;28;20646;-60
2023/01/10 11:41:54;;;;;;;18.73;4.70;;;4.90;99.90;;;;;;5012548;28;20108;-62
2023/01/10 11:44:23;;;;;;;27.83;4.90;;;4.90;99.90;;;;;;5009218;28;20045;-61
2023/01/10 11:46:55;;;;;;;22.58;4.75;;;4.80;99.90;;;;;;5014232;28;20034;-59
2023/01/10 11:49:44;;;;;;;18.58;3.83;;;4.80;99.90;;;;;;5006821;28;20036;-62
2023/01/10 11:52:24;;;;;;;32.88;4.25;;;4.90;99.90;;;;;;4999678;28;20542;-61
2023/01/10 11:54:53;;;;;;;18.90;3.50;;;4.90;99.90;;;;;;5005582;28;20042;-59
2023/01/10 11:57:23;;;;;;;25.08;3.80;;;4.90;99.90;;;;;;5009524;28;20029;-60
2023/01/10 12:00:00;;;;;;;18.75;3.03;;;4.80;99.90;;;;;;5005964;28;20112;-61
2023/01/10 12:02:40;;;;;;;18.65;2.90;;;4.80;99.90;;;;;;5011208;28;20061;-60
2023/01/10 12:05:16;;;;;;;19.73;3.72;;;4.80;99.90;;;;;;5002626;28;20054;-59
2023/01/10 12:08:05;;;;;;;17.70;3.33;;;4.80;99.90;;;;;;5004662;28;20453;-60
2023/01/10 12:10:31;;;;;;;17.98;3.17;;;4.80;99.90;;;;;;5008635;28;20038;-58
2023/01/10 12:13:12;;;;;;;20.35;4.18;;;4.80;99.90;;;;;;5013346;28;20113;-61
2023/01/10 12:15:38;;;;;;;18.13;2.97;;;4.80;99.90;;;;;;4991593;28;20030;-60
2023/01/10 12:18:05;;;;;;;26.63;3.75;;;4.80;99.90;;;;;;4987488;28;20036;-61
2023/01/10 12:20:39;;;;;;;20.95;3.88;;;4.80;99.90;;;;;;5006485;28;20141;-59
2023/01/10 12:23:12;;;;;;;22.65;3.20;;;4.70;99.90;;;;;;5009269;28;20116;-58
2023/01/10 12:25:40;;;;;;;20.73;3.03;;;4.70;99.90;;;;;;5013377;28;20059;-61
2023/01/10 12:28:23;;;;;;;16.05;3.95;;;4.70;99.90;;;;;;5005635;28;20084;-61
2023/01/10 12:30:51;;;;;;;12.82;2.75;;;4.70;99.90;;;;;;5007494;28;20053;-60
2023/01/10 12:33:33;;;;;;;18.85;3.15;;;4.80;99.90;;;;;;5009715;28;20053;-62
2023/01/10 12:36:08;;;;;;;22.38;3.85;;;4.80;99.90;;;;;;5008863;28;20110;-61
2023/01/10 12:44:34;;;;;;;;;;;4.80;99.90;;;;;;5014936;28;20042;-63
2023/01/10 12:47:10;;;;;;;18.67;2.97;;;4.80;99.90;;;;;;5001004;28;19917;-62
2023/01/10 12:49:49;;;;;;;;;;;4.80;99.90;;;;;;5007831;28;20030;-60
2023/01/10 12:52:44;;;;;;;15.30;2.80;;;4.70;99.90;;;;;;5006420;28;19909;-61
2023/01/10 12:55:14;;;;;;;22.10;3.10;;;4.60;99.90;;;;;;5000673;28;20030;-61
2023/01/10 12:57:42;;;;;;;23.30;3.90;;;4.70;99.90;;;;;;5004884;28;20088;-61
2023/01/10 13:00:27;;;;;;;18.13;2.95;;;4.70;99.90;;;;;;5008801;28;20064;-60
2023/01/10 13:02:56;;;;;;;24.13;3.45;;;4.70;99.90;;;;;;5009253;28;20046;-61
2023/01/10 13:05:24;;;;;;;23.85;3.47;;;4.60;99.90;;;;;;5004886;28;20068;-62
2023/01/10 13:07:53;;;;;;;27.00;3.90;;;4.70;99.90;;;;;;5006887;28;20446;-61
2023/01/10 13:10:23;;;;;;;13.32;2.67;;;4.70;99.90;;;;;;5012160;28;20060;-61
2023/01/10 13:13:02;;;;;;;19.17;3.28;;;4.60;99.90;;;;;;5018223;28;20037;-62
2023/01/10 13:15:31;;;;;;;14.18;2.70;;;4.70;99.90;;;;;;5014951;28;20068;-63
2023/01/10 13:18:04;;;;;;;20.10;2.72;;;4.60;99.90;;;;;;5010100;28;20808;-58